• Join FlightAware (Why Join?)
  • Login
  • US Flag 
12:12PM EDT


 

Airport Tracker/Info


-or-


 

Live Flight TrackerFlight Track Log ✈ EJA646 ✈ 25-Apr-2013 ✈ KSAV - KMIA

Flight Track Log - Related Links

Times and Time Zones

All times are in EDT time to prevent confusion due to time zone crossing. See the EJA646 flight status page for this flight to view local times or setup timezone preferences in your user account.

Time Position Orientation Groundspeed Altitude Reporting Facility
EDT Latitude Longitude Course Direction KTS MPH feet Rate Location/Type
05:25PM 32.0617 -81.2356 168° South 255 293 8,000  Level Jacksonville Center
05:26PM 31.9803 -81.2294 176° South 285 328 10,300 2,400 Climbing Jacksonville Center
05:27PM 31.9008 -81.2139 171° South 299 344 12,900 2,700 Climbing Jacksonville Center
05:28PM 31.8103 -81.1592 153° Southeast 330 380 15,800 2,460 Climbing Jacksonville Center
05:29PM 31.4672 -81.1015 180° South  Level Estimated
05:29PM 31.7322 -81.1119 153° Southeast 347 399 17,900  Level Jacksonville Center
05:30PM 31.6356 -81.0722 161° South 342 394 20,400 2,220 Climbing Jacksonville Center
05:31PM 31.5397 -81.0742 181° South 337 388 22,400 1,560 Climbing Jacksonville Center
05:32PM 31.4478 -81.0758 181° South 364 419 23,600 1,380 Climbing Jacksonville Center
05:33PM 31.3394 -81.0803 182° South 382 440 25,200 1,560 Climbing Jacksonville Center
05:34PM 31.2308 -81.0825 181° South 387 445 26,800 1,500 Climbing Jacksonville Center
05:35PM 31.1222 -81.0847 181° South 387 445 28,300 1,500 Climbing Jacksonville Center
05:36PM 31.0094 -81.0869 181° South 387 445 29,800 1,500 Climbing Jacksonville Center
05:37PM 30.8967 -81.0867 180° South 399 459 31,300 1,500 Climbing Jacksonville Center
05:38PM 30.7842 -81.0911 182° South 404 465 32,800 1,260 Climbing Jacksonville Center
05:39PM 30.6714 -81.0908 180° South 404 465 33,900 600 Climbing Jacksonville Center
05:40PM 30.5525 -81.0931 181° South 410 472 34,000  Climbing Jacksonville Center
05:41PM 30.4292 -81.0931 180° South 434 499 34,000  Level Jacksonville Center
05:42PM 30.3039 -81.0953 181° South 444 511 34,000 600 Level Jacksonville Center
05:43PM 30.1828 -81.0975 181° South 444 511 35,300 1,500 Climbing Jacksonville Center
05:44PM 30.0661 -81.1022 182° South 434 499 37,000 1,500 Climbing Jacksonville Center
05:45PM 29.9533 -81.1019 180° South 418 481 38,400 1,140 Climbing Jacksonville Center
05:46PM 29.8406 -81.1064 182° South 413 475 39,300 720 Climbing Jacksonville Center
05:47PM 29.7217 -81.1086 181° South 413 475 39,900 300 Climbing Jacksonville Center
05:48PM 29.6028 -81.1106 181° South 425 489 40,000  Climbing Jacksonville Center
05:49PM 29.4775 -81.1106 180° South 439 505 40,000  Level Jacksonville Center
05:50PM 29.3564 -81.1128 181° South 439 505 40,000  Level Jacksonville Center
05:52PM 29.1097 -81.0369 165° South 452 520 40,000  Level Miami Center
05:53PM 28.9819 -80.9892 162° South 462 532 40,000  Level Miami Center
05:54PM 28.8583 -80.9372 160° South 468 539 40,000  Level Miami Center
05:55PM 28.7344 -80.8878 161° South 475 547 40,000 -780 Level Miami Center
05:56PM 28.5983 -80.8308 160° South 481 554 38,500 -1,680 Descending Miami Center
05:57PM 28.4931 -80.7892 161° South 464 534 36,700 -1,980 Descending Miami Center
05:58PM 28.3653 -80.7353 160° South 454 522 34,600 -1,380 Descending Miami Center
05:59PM 28.2372 -80.6861 161° South 463 533 34,000 -300 Descending Miami Center
06:00PM 28.1175 -80.6372 160° South 470 541 34,000  Level Miami Center
06:01PM 27.9911 -80.5956 164° South 470 541 34,000  Level Miami Center
06:02PM 27.8650 -80.5514 163° South 475 547 34,000 -480 Level Miami Center
06:03PM 27.7447 -80.5147 165° South 463 533 33,100 -1,740 Descending Miami Center
06:04PM 27.6186 -80.4661 161° South 463 533 30,600 -2,460 Descending Miami Center
06:05PM 27.5008 -80.4203 161° South 458 527 28,200 -2,400 Descending Miami Center
06:06PM 27.3850 -80.3747 161° South 458 527 25,900 -2,100 Descending Miami Center
06:07PM 27.2692 -80.3267 160° South 453 521 24,000 -960 Descending Miami Center
06:08PM 27.1575 -80.2814 160° South 447 514 24,000 -960 Level Miami Center
06:09PM 27.0458 -80.2383 161° South 434 499 22,100 -2,100 Descending Miami Center
06:10PM 26.9361 -80.1933 160° South 428 493 19,900 -2,100 Descending Miami Center
06:11PM 26.8328 -80.1508 160° South 416 479 17,900 -2,100 Descending Miami Center
06:12PM 26.7375 -80.1108 159° South 405 466 15,800 -1,920 Descending Miami Center
06:13PM 26.6256 -80.0800 166° South 383 441 14,100 -1,500 Descending Miami Center
06:14PM 26.5422 -80.0661 172° South 370 426 13,100 -600 Descending Miami Center
06:15PM 26.4444 -80.0494 171° South 361 415 13,000 -480 Descending Miami Center
06:16PM 26.3406 -80.0306 171° South 355 409 12,200 -1,200 Descending Miami Center
06:17PM 26.2342 -80.0206 175° South 360 414 10,500 -1,080 Descending Miami Center
06:18PM 26.1375 -80.0436 192° South 349 402 10,000 -300 Descending Miami Center
06:19PM 26.0533 -80.0714 197° South 346 398 10,000 -480 Level Miami Center
06:20PM 25.9672 -80.1014 197° South 302 348 9,100 -1,080 Descending Miami Center
06:21PM 25.9153 -80.1761 232° Southwest 282 325 7,900 -1,920 Descending Miami Center
06:22PM 25.9031 -80.2589 261° West 267 307 5,300 -1,920 Descending Miami Center
06:23PM 25.8906 -80.3442 261° West 267 307 4,000 -780 Descending Miami Center
06:24PM 25.8806 -80.4108 261° West 207 238 3,800 -840 Descending Miami Center
06:25PM 25.8342 -80.4325 203° Southwest 207 238 2,400 -1,200 Descending Miami Center
06:26PM 25.8039 -80.3878 127° Southeast 186 214 1,500 -840 Descending Miami Center
06:27PM 25.7986 -80.3461 98° East 123 142 800 -720 Descending Miami Center
06:28PM 25.8014 -80.3092 85° East 110 127 100 -720 Descending Miami Center
06:30PM 25.7954 -80.2901 103° East  Level Estimated